Time;durP1;ratioP1;P1;durP2;ratioP2;P2;SDS_P1;SDS_P2;PMS_P1;PMS_P2;Temp;Humidity;BMP_temperature;BMP_pressure;BME280_temperature;BME280_humidity;BME280_pressure;Samples;Min_cycle;Max_cycle;Signal;HPM_P1;HPM_P2
2024/03/31 00:00:13;;;;;;;1.67;1.15;;;9.90;78.70;;;;;;4989541;28;20134;-67
2024/03/31 00:02:39;;;;;;;0.60;0.60;;;9.90;79.00;;;;;;4988407;28;20068;-67
2024/03/31 00:05:06;;;;;;;1.25;0.63;;;9.90;78.80;;;;;;4990194;28;20026;-67
2024/03/31 00:07:31;;;;;;;1.60;0.70;;;9.90;78.90;;;;;;4988894;28;20031;-67
2024/03/31 00:09:57;;;;;;;1.02;0.63;;;10.00;79.10;;;;;;4985265;28;20053;-67
2024/03/31 00:12:23;;;;;;;1.10;0.68;;;10.00;79.20;;;;;;4986608;28;20095;-67
2024/03/31 00:14:49;;;;;;;1.50;0.90;;;10.10;79.20;;;;;;4988103;28;20066;-67
2024/03/31 00:17:15;;;;;;;1.63;0.82;;;10.20;79.20;;;;;;4989624;28;20037;-67
2024/03/31 00:19:41;;;;;;;2.78;1.60;;;10.20;79.30;;;;;;4991083;28;20027;-67
2024/03/31 00:22:07;;;;;;;1.90;1.38;;;10.30;79.30;;;;;;4988714;28;20025;-67
2024/03/31 00:24:32;;;;;;;1.98;1.08;;;10.30;79.40;;;;;;4990745;28;20547;-67
2024/03/31 00:26:58;;;;;;;1.92;1.10;;;10.40;80.00;;;;;;4989871;28;20038;-67
2024/03/31 00:29:24;;;;;;;3.28;1.75;;;10.50;79.40;;;;;;4990931;28;20508;-67
2024/03/31 00:31:50;;;;;;;5.88;1.55;;;10.60;79.40;;;;;;4990149;28;20033;-67
2024/03/31 00:34:16;;;;;;;3.65;2.20;;;10.60;79.40;;;;;;4988947;28;20240;-67
2024/03/31 00:36:44;;;;;;;3.67;2.03;;;10.70;79.50;;;;;;4988951;28;20046;-67
2024/03/31 00:39:10;;;;;;;3.63;2.22;;;10.80;79.60;;;;;;4990373;28;20025;-67
2024/03/31 00:41:36;;;;;;;3.45;2.35;;;10.80;79.50;;;;;;4989593;28;20393;-67
2024/03/31 00:44:03;;;;;;;3.75;2.97;;;10.80;79.70;;;;;;4985290;28;20396;-63
2024/03/31 00:46:29;;;;;;;5.10;2.53;;;10.80;79.70;;;;;;4989237;28;20131;-62
2024/03/31 00:48:55;;;;;;;4.63;2.28;;;10.90;79.90;;;;;;4972798;28;20058;-62
2024/03/31 00:51:20;;;;;;;4.53;2.83;;;10.90;80.00;;;;;;4989988;28;20038;-61
2024/03/31 00:53:46;;;;;;;6.35;3.13;;;11.00;80.00;;;;;;4971778;28;20054;-62
2024/03/31 00:56:13;;;;;;;5.25;3.38;;;11.00;80.00;;;;;;4989278;28;20089;-62
2024/03/31 00:58:38;;;;;;;6.22;2.72;;;11.00;80.10;;;;;;4989168;28;20030;-66
2024/03/31 01:01:04;;;;;;;6.85;3.50;;;11.00;80.10;;;;;;4989835;28;20042;-62
2024/03/31 01:03:31;;;;;;;6.32;3.30;;;11.00;80.30;;;;;;4971304;28;20342;-62
2024/03/31 01:05:59;;;;;;;6.28;2.67;;;11.00;80.50;;;;;;4987565;28;20493;-62
2024/03/31 01:08:26;;;;;;;7.15;4.05;;;11.00;80.60;;;;;;4984814;28;20033;-68
2024/03/31 01:10:53;;;;;;;5.65;3.10;;;11.10;80.70;;;;;;4980861;28;20130;-62
2024/03/31 01:13:21;;;;;;;5.63;2.92;;;11.10;80.70;;;;;;4983917;28;20409;-62
2024/03/31 01:15:47;;;;;;;7.32;3.00;;;11.00;80.60;;;;;;4986246;28;20137;-62
2024/03/31 01:18:13;;;;;;;7.07;3.15;;;11.10;80.70;;;;;;4985575;28;20038;-62
2024/03/31 01:20:39;;;;;;;5.40;2.78;;;11.10;81.30;;;;;;4988855;28;20030;-62
2024/03/31 01:23:06;;;;;;;6.07;3.33;;;11.10;80.80;;;;;;4987227;28;20026;-67
2024/03/31 01:25:38;;;;;;;5.85;3.13;;;11.10;80.70;;;;;;4987857;28;20030;-67
2024/03/31 01:28:04;;;;;;;7.28;3.55;;;11.10;80.80;;;;;;4989604;28;20057;-63
2024/03/31 01:30:30;;;;;;;4.20;2.38;;;11.20;80.80;;;;;;4990460;28;20022;-62
2024/03/31 01:32:57;;;;;;;4.18;1.95;;;11.20;80.70;;;;;;4971192;28;20481;-67
2024/03/31 01:35:23;;;;;;;4.38;2.58;;;11.20;80.70;;;;;;4989891;28;20026;-67
2024/03/31 01:37:49;;;;;;;3.90;2.22;;;11.20;80.80;;;;;;4988848;28;20198;-67
2024/03/31 01:40:15;;;;;;;4.80;2.25;;;11.20;80.80;;;;;;4987314;28;20037;-66
2024/03/31 01:42:44;;;;;;;4.25;2.00;;;11.20;80.80;;;;;;4985618;28;20061;-69
2024/03/31 01:45:11;;;;;;;3.35;1.90;;;11.20;80.80;;;;;;4981584;28;20026;-69
2024/03/31 01:47:37;;;;;;;4.00;2.00;;;11.20;80.80;;;;;;4982408;28;20429;-69
2024/03/31 01:50:03;;;;;;;4.38;2.35;;;11.20;80.80;;;;;;4986992;28;20030;-69
2024/03/31 01:52:29;;;;;;;4.43;2.28;;;11.20;80.80;;;;;;4988751;28;20477;-70
2024/03/31 01:54:54;;;;;;;3.55;1.60;;;11.20;80.80;;;;;;4989182;28;20056;-69
2024/03/31 01:57:20;;;;;;;3.78;2.03;;;11.20;80.80;;;;;;4985295;28;20057;-69
2024/03/31 01:59:46;;;;;;;4.88;2.70;;;11.20;80.90;;;;;;4988234;28;20097;-67
2024/03/31 02:02:12;;;;;;;4.10;2.10;;;11.10;81.00;;;;;;4988859;28;20026;-67
2024/03/31 02:04:38;;;;;;;2.15;1.20;;;11.10;81.00;;;;;;4989632;28;20026;-69
2024/03/31 02:07:04;;;;;;;2.70;1.40;;;11.10;81.00;;;;;;4988643;28;20050;-67
2024/03/31 02:09:29;;;;;;;2.45;1.58;;;11.10;81.10;;;;;;4983608;28;20046;-67
2024/03/31 02:11:56;;;;;;;3.13;1.20;;;11.10;81.10;;;;;;4987445;28;20089;-68
2024/03/31 02:14:21;;;;;;;3.55;2.45;;;11.00;81.00;;;;;;4987476;28;20042;-66
2024/03/31 02:16:48;;;;;;;2.53;1.70;;;11.00;81.00;;;;;;4988885;28;20081;-66
2024/03/31 02:19:13;;;;;;;2.55;1.50;;;11.00;81.10;;;;;;4991517;28;20036;-67
2024/03/31 02:21:39;;;;;;;2.92;1.38;;;11.00;81.10;;;;;;4991971;28;20105;-67
2024/03/31 02:24:05;;;;;;;2.80;1.17;;;11.00;81.10;;;;;;4988921;28;20034;-67
2024/03/31 02:26:31;;;;;;;2.67;1.30;;;11.00;81.00;;;;;;4972089;28;20030;-67
2024/03/31 02:28:57;;;;;;;1.85;1.10;;;11.00;81.00;;;;;;4989208;28;20026;-67
2024/03/31 02:31:23;;;;;;;3.75;1.48;;;11.00;81.50;;;;;;4992425;28;20168;-67
2024/03/31 02:33:49;;;;;;;1.33;1.05;;;11.00;80.90;;;;;;4993018;28;20041;-67
2024/03/31 02:36:14;;;;;;;1.30;1.02;;;11.00;80.90;;;;;;4992791;28;20046;-67
2024/03/31 02:38:40;;;;;;;3.88;2.10;;;11.00;80.90;;;;;;4992081;28;20499;-67
2024/03/31 02:41:06;;;;;;;2.72;1.65;;;11.00;80.90;;;;;;4955514;28;20050;-67
2024/03/31 02:43:33;;;;;;;1.60;1.05;;;11.00;80.80;;;;;;4989943;28;20535;-67
2024/03/31 02:45:58;;;;;;;1.88;1.45;;;11.00;80.80;;;;;;4993098;28;20366;-67
2024/03/31 02:48:24;;;;;;;2.25;1.20;;;11.00;80.90;;;;;;4991208;28;20041;-67
2024/03/31 02:50:50;;;;;;;1.13;0.95;;;11.00;80.90;;;;;;4972074;28;20056;-64
2024/03/31 02:53:16;;;;;;;2.53;1.50;;;11.00;80.80;;;;;;4987198;28;20093;-64
2024/03/31 02:55:42;;;;;;;2.75;1.38;;;11.00;80.80;;;;;;4977602;28;20034;-64
2024/03/31 02:58:07;;;;;;;2.13;1.10;;;11.10;80.80;;;;;;4982505;28;20034;-67
2024/03/31 03:00:33;;;;;;;2.35;1.40;;;11.00;80.70;;;;;;4991067;28;20018;-67
2024/03/31 03:02:59;;;;;;;2.25;1.15;;;11.10;80.80;;;;;;4986730;28;20486;-67
2024/03/31 03:05:25;;;;;;;1.83;1.33;;;11.00;80.80;;;;;;4984875;28;20023;-67
2024/03/31 03:07:51;;;;;;;1.48;0.80;;;11.00;80.80;;;;;;4988254;28;20033;-67
2024/03/31 03:10:16;;;;;;;3.53;1.33;;;11.10;80.90;;;;;;4991781;28;20125;-67
2024/03/31 03:12:46;;;;;;;2.47;1.30;;;11.10;80.80;;;;;;4974036;28;20030;-64
2024/03/31 03:15:12;;;;;;;4.45;1.35;;;11.10;80.80;;;;;;4992322;28;20034;-64
2024/03/31 03:17:38;;;;;;;2.20;1.02;;;11.10;80.70;;;;;;4991999;28;20026;-63
2024/03/31 03:20:04;;;;;;;3.58;1.55;;;11.10;80.70;;;;;;4991979;28;20030;-63
2024/03/31 03:22:30;;;;;;;2.88;1.17;;;11.10;80.70;;;;;;4991589;28;20377;-63
2024/03/31 03:24:55;;;;;;;1.60;1.02;;;11.10;80.80;;;;;;4990012;28;20042;-64
2024/03/31 03:27:21;;;;;;;2.17;1.35;;;11.00;80.80;;;;;;4984553;28;20126;-63
2024/03/31 03:29:47;;;;;;;1.30;1.10;;;11.00;80.90;;;;;;4989694;28;20073;-63
2024/03/31 03:32:13;;;;;;;2.15;1.15;;;11.00;81.00;;;;;;4964526;28;20061;-64
2024/03/31 03:34:38;;;;;;;2.65;1.65;;;10.90;80.90;;;;;;4988681;28;20019;-63
2024/03/31 03:37:04;;;;;;;2.25;1.02;;;10.90;81.00;;;;;;4991601;28;20031;-64
2024/03/31 03:39:30;;;;;;;2.33;1.30;;;10.80;81.00;;;;;;4970996;28;20081;-64
2024/03/31 03:41:56;;;;;;;1.27;0.90;;;10.80;81.00;;;;;;4991342;28;20129;-64
2024/03/31 03:44:22;;;;;;;1.02;0.70;;;10.80;81.00;;;;;;4989712;28;20502;-64
2024/03/31 03:46:47;;;;;;;2.25;1.20;;;10.80;81.00;;;;;;4984902;28;20030;-64
2024/03/31 03:49:13;;;;;;;1.88;1.35;;;10.80;80.90;;;;;;4991355;28;20118;-64
2024/03/31 03:51:39;;;;;;;2.53;1.52;;;10.70;81.00;;;;;;4991543;28;20038;-64
2024/03/31 03:54:05;;;;;;;1.77;1.10;;;10.80;81.20;;;;;;4985260;28;20046;-64
2024/03/31 03:56:31;;;;;;;1.70;0.80;;;10.70;81.10;;;;;;4972105;28;20073;-64
2024/03/31 03:59:00;;;;;;;2.10;1.30;;;10.70;81.20;;;;;;4990095;28;20070;-64
2024/03/31 04:01:26;;;;;;;1.92;1.10;;;10.70;81.30;;;;;;4988472;28;20026;-64
2024/03/31 04:03:52;;;;;;;2.85;1.15;;;10.60;81.30;;;;;;4991446;28;20113;-64
2024/03/31 04:06:18;;;;;;;2.50;1.15;;;10.70;81.30;;;;;;4991654;28;20041;-64
2024/03/31 04:08:44;;;;;;;2.50;1.17;;;10.60;81.20;;;;;;4990316;28;20038;-64
2024/03/31 04:11:10;;;;;;;2.38;1.50;;;10.70;81.20;;;;;;4990798;28;20041;-64
2024/03/31 04:13:36;;;;;;;2.95;1.40;;;10.70;81.10;;;;;;4974166;28;20026;-64
2024/03/31 04:16:02;;;;;;;4.07;1.40;;;10.70;81.10;;;;;;4991244;28;20042;-64
2024/03/31 04:18:28;;;;;;;2.38;1.30;;;10.70;81.10;;;;;;4954694;28;20026;-63
2024/03/31 04:20:54;;;;;;;2.08;1.60;;;10.70;81.00;;;;;;4989709;28;20088;-64
2024/03/31 04:23:21;;;;;;;2.00;1.27;;;10.80;81.70;;;;;;4986237;28;20035;-64
2024/03/31 04:25:47;;;;;;;2.97;1.42;;;10.70;81.00;;;;;;4990213;28;20045;-64
2024/03/31 04:28:14;;;;;;;1.63;1.20;;;10.80;81.10;;;;;;4969660;28;20034;-64
2024/03/31 04:30:43;;;;;;;1.77;1.42;;;10.80;81.10;;;;;;4990313;28;20026;-67
2024/03/31 04:33:12;;;;;;;2.80;1.58;;;10.80;81.10;;;;;;4985524;28;20488;-67
2024/03/31 04:35:40;;;;;;;2.25;1.27;;;10.80;81.20;;;;;;4990702;28;20050;-64
2024/03/31 04:38:06;;;;;;;2.03;1.40;;;10.80;81.20;;;;;;4990377;28;20018;-63
2024/03/31 04:40:32;;;;;;;2.85;1.60;;;10.80;81.10;;;;;;4986763;28;20030;-67
2024/03/31 04:42:57;;;;;;;2.25;1.50;;;10.80;81.70;;;;;;4987458;28;20041;-67
2024/03/31 04:45:24;;;;;;;2.42;1.60;;;10.80;81.10;;;;;;4990247;28;20088;-67
2024/03/31 04:47:49;;;;;;;3.45;1.77;;;10.90;81.00;;;;;;4965725;28;20484;-67
2024/03/31 04:50:16;;;;;;;3.03;1.67;;;10.90;80.90;;;;;;4983896;28;20118;-67
2024/03/31 04:52:42;;;;;;;4.65;1.73;;;10.90;80.90;;;;;;4970107;28;20022;-66
2024/03/31 04:55:08;;;;;;;2.83;1.80;;;10.90;81.10;;;;;;4990016;28;20077;-64
2024/03/31 04:57:33;;;;;;;2.58;1.33;;;10.90;81.10;;;;;;4990012;28;20034;-64
2024/03/31 04:59:59;;;;;;;2.03;1.48;;;10.90;81.10;;;;;;4988659;28;20049;-64
2024/03/31 05:02:25;;;;;;;2.38;1.30;;;10.90;81.10;;;;;;4988318;28;20436;-65
2024/03/31 05:04:51;;;;;;;2.08;1.45;;;10.90;81.10;;;;;;4988560;28;20092;-64
2024/03/31 05:07:18;;;;;;;2.15;1.48;;;10.90;81.10;;;;;;4989691;28;20046;-64
2024/03/31 05:09:44;;;;;;;1.83;1.40;;;10.90;81.20;;;;;;4985241;28;20035;-64
2024/03/31 05:12:09;;;;;;;2.45;1.48;;;10.90;81.20;;;;;;4986023;28;20061;-64
2024/03/31 05:14:35;;;;;;;2.58;1.45;;;10.90;81.20;;;;;;4966655;28;20482;-64
2024/03/31 05:17:03;;;;;;;2.67;1.20;;;10.90;81.20;;;;;;4990337;28;20062;-64
2024/03/31 05:19:29;;;;;;;2.35;1.30;;;10.90;81.20;;;;;;4972655;28;20030;-64
2024/03/31 05:21:54;;;;;;;3.03;2.15;;;11.00;81.20;;;;;;4988607;28;20364;-64
2024/03/31 05:24:20;;;;;;;2.67;2.17;;;11.00;81.20;;;;;;4983189;28;20035;-64
2024/03/31 05:26:45;;;;;;;3.10;1.77;;;11.00;81.30;;;;;;4985660;28;20125;-64
2024/03/31 05:29:11;;;;;;;2.15;1.27;;;10.90;81.30;;;;;;4987266;28;20034;-64
2024/03/31 05:31:36;;;;;;;3.05;1.40;;;10.90;81.30;;;;;;4989482;28;20109;-65
2024/03/31 05:34:03;;;;;;;3.17;1.90;;;10.90;81.30;;;;;;4982239;28;20042;-65
2024/03/31 05:36:30;;;;;;;3.65;2.08;;;10.90;81.40;;;;;;4988727;28;20124;-65
2024/03/31 05:38:55;;;;;;;2.42;1.80;;;10.90;81.50;;;;;;4986088;28;20114;-67
2024/03/31 05:41:21;;;;;;;4.70;2.40;;;10.90;81.60;;;;;;4979311;28;20460;-67
2024/03/31 05:43:47;;;;;;;4.18;2.08;;;10.90;81.60;;;;;;4985255;28;20018;-68
2024/03/31 05:46:13;;;;;;;3.13;1.83;;;10.90;81.70;;;;;;4983644;28;20114;-68
2024/03/31 05:48:38;;;;;;;4.40;2.35;;;10.90;81.70;;;;;;4975204;28;20430;-68
2024/03/31 05:51:04;;;;;;;5.00;2.80;;;10.90;81.60;;;;;;4976616;28;20370;-68
2024/03/31 05:53:30;;;;;;;3.13;2.03;;;10.90;81.70;;;;;;4976699;28;20501;-68
2024/03/31 05:55:55;;;;;;;3.35;1.48;;;10.90;81.80;;;;;;4972247;28;20404;-68
2024/03/31 05:58:21;;;;;;;2.80;1.90;;;10.90;81.80;;;;;;4971507;28;20046;-67
2024/03/31 06:00:48;;;;;;;3.30;1.67;;;10.90;81.80;;;;;;4972004;28;20391;-68
2024/03/31 06:03:14;;;;;;;4.75;2.10;;;10.90;81.90;;;;;;4972478;28;20014;-67
2024/03/31 06:05:39;;;;;;;4.15;2.53;;;10.90;82.00;;;;;;4989397;28;20488;-67
2024/03/31 06:08:06;;;;;;;2.75;2.17;;;10.90;82.10;;;;;;4989544;28;20035;-67
2024/03/31 06:10:34;;;;;;;3.30;2.17;;;11.00;82.20;;;;;;4988977;28;20034;-67
2024/03/31 06:13:00;;;;;;;2.75;2.10;;;11.00;82.20;;;;;;4971168;28;20500;-67
2024/03/31 06:15:25;;;;;;;4.05;2.55;;;11.00;82.20;;;;;;4989468;28;20060;-67
2024/03/31 06:17:51;;;;;;;3.35;2.03;;;11.00;82.20;;;;;;4982727;28;20466;-67
2024/03/31 06:20:16;;;;;;;2.92;1.80;;;11.00;82.30;;;;;;4971604;28;20037;-67
2024/03/31 06:22:42;;;;;;;5.60;2.67;;;11.00;82.30;;;;;;4971421;28;20022;-68
2024/03/31 06:25:08;;;;;;;3.67;2.55;;;11.10;82.40;;;;;;4987939;28;20110;-67
2024/03/31 06:27:34;;;;;;;4.82;2.42;;;11.10;82.40;;;;;;4988874;28;20030;-67
2024/03/31 06:30:01;;;;;;;4.70;2.72;;;11.20;82.40;;;;;;4971356;28;20072;-67
2024/03/31 06:32:27;;;;;;;3.53;2.47;;;11.20;82.90;;;;;;4988100;28;20075;-67
2024/03/31 06:34:52;;;;;;;4.65;2.50;;;11.20;82.30;;;;;;4989706;28;20031;-69
2024/03/31 06:37:18;;;;;;;5.30;2.72;;;11.30;82.30;;;;;;4969405;28;20049;-68
2024/03/31 06:39:47;;;;;;;5.97;3.20;;;11.40;82.90;;;;;;4970303;28;20023;-66
2024/03/31 06:42:14;;;;;;;5.03;2.58;;;11.40;82.30;;;;;;4985224;28;20046;-67
2024/03/31 06:44:40;;;;;;;4.57;2.33;;;11.40;82.20;;;;;;4986130;28;20023;-67
2024/03/31 06:47:06;;;;;;;6.50;3.08;;;11.40;82.20;;;;;;4985357;28;20173;-68
2024/03/31 06:49:31;;;;;;;4.03;2.42;;;11.50;82.30;;;;;;4981573;28;20448;-67
2024/03/31 06:51:58;;;;;;;2.65;1.92;;;11.50;82.40;;;;;;4984011;28;20031;-67
2024/03/31 06:54:24;;;;;;;7.07;2.15;;;11.50;82.30;;;;;;4982118;28;20528;-67
2024/03/31 06:56:50;;;;;;;4.38;1.70;;;11.50;82.30;;;;;;4980034;28;20397;-67
2024/03/31 06:59:16;;;;;;;2.95;2.15;;;11.60;82.30;;;;;;4964374;28;20022;-66
2024/03/31 07:01:41;;;;;;;3.50;2.45;;;11.70;82.40;;;;;;4987480;28;20038;-67
2024/03/31 07:04:07;;;;;;;5.10;2.42;;;11.70;82.30;;;;;;4989510;28;20062;-68
2024/03/31 07:06:33;;;;;;;4.25;2.60;;;11.80;82.20;;;;;;4991534;28;20113;-67
2024/03/31 07:08:58;;;;;;;3.35;1.80;;;11.80;82.10;;;;;;4992067;28;20055;-68
2024/03/31 07:11:24;;;;;;;3.60;1.95;;;11.90;82.10;;;;;;4961430;28;20045;-67
2024/03/31 07:13:50;;;;;;;3.53;2.08;;;11.90;82.20;;;;;;4989041;28;20482;-68
2024/03/31 07:16:15;;;;;;;4.15;2.88;;;11.90;82.30;;;;;;4992488;28;20042;-67
2024/03/31 07:18:41;;;;;;;3.28;2.10;;;11.80;82.30;;;;;;4990753;28;20026;-67
2024/03/31 07:21:06;;;;;;;4.43;2.67;;;11.80;82.30;;;;;;4990387;28;20093;-68
2024/03/31 07:23:32;;;;;;;4.53;3.65;;;11.80;82.30;;;;;;4991400;28;20057;-67
2024/03/31 07:26:00;;;;;;;5.90;3.15;;;11.90;82.50;;;;;;4985634;28;20392;-68
2024/03/31 07:28:26;;;;;;;5.15;3.15;;;11.90;82.40;;;;;;4988207;28;20058;-67
2024/03/31 07:30:54;;;;;;;4.22;2.90;;;11.90;82.40;;;;;;4967889;28;20077;-67
2024/03/31 07:33:20;;;;;;;4.95;2.72;;;11.90;82.40;;;;;;4988723;28;20493;-65
2024/03/31 07:35:46;;;;;;;8.50;2.95;;;11.90;82.50;;;;;;4988714;28;20481;-65
2024/03/31 07:38:11;;;;;;;5.25;3.45;;;12.00;82.50;;;;;;4991256;28;20023;-67
2024/03/31 07:40:37;;;;;;;5.22;2.83;;;12.00;82.40;;;;;;4958316;28;20100;-65
2024/03/31 07:43:03;;;;;;;7.25;3.05;;;12.10;82.40;;;;;;4988986;28;20035;-65
2024/03/31 07:45:29;;;;;;;6.25;3.45;;;12.10;82.40;;;;;;4955505;28;20490;-64
2024/03/31 07:47:55;;;;;;;3.70;2.65;;;12.20;82.40;;;;;;4991788;28;20063;-65
2024/03/31 07:50:21;;;;;;;5.60;2.97;;;12.30;82.40;;;;;;4986727;28;20479;-65
2024/03/31 07:52:46;;;;;;;4.40;2.80;;;12.30;82.30;;;;;;4983758;28;20061;-62
2024/03/31 07:55:12;;;;;;;5.55;3.17;;;12.40;82.10;;;;;;4984492;28;20034;-63
2024/03/31 07:57:38;;;;;;;5.85;3.30;;;12.50;82.00;;;;;;4989094;28;20081;-63
2024/03/31 08:00:04;;;;;;;4.03;2.58;;;12.60;82.10;;;;;;4989960;28;20038;-63
2024/03/31 08:02:29;;;;;;;7.30;3.42;;;12.60;81.90;;;;;;4961034;28;20097;-63
2024/03/31 08:04:55;;;;;;;5.93;3.30;;;12.70;81.90;;;;;;4990374;28;20030;-64
2024/03/31 08:07:21;;;;;;;5.28;2.58;;;12.70;81.80;;;;;;4990413;28;20038;-63
2024/03/31 08:09:46;;;;;;;5.45;3.17;;;12.80;81.70;;;;;;4988633;28;20038;-65
2024/03/31 08:12:12;;;;;;;7.93;3.15;;;12.80;81.70;;;;;;4972607;28;20069;-65
2024/03/31 08:14:38;;;;;;;6.85;2.70;;;12.80;81.80;;;;;;4990481;28;20038;-65
2024/03/31 08:17:04;;;;;;;4.78;3.42;;;12.90;81.90;;;;;;4989679;28;20551;-66
2024/03/31 08:19:29;;;;;;;5.75;3.10;;;12.90;81.80;;;;;;4990822;28;20041;-65
2024/03/31 08:21:55;;;;;;;4.35;2.92;;;13.00;81.90;;;;;;4990648;28;20057;-65
2024/03/31 08:24:21;;;;;;;6.55;3.83;;;13.10;81.80;;;;;;4975736;28;20334;-65
2024/03/31 08:26:47;;;;;;;5.05;3.22;;;13.20;81.70;;;;;;4989571;28;20109;-67
2024/03/31 08:29:14;;;;;;;4.30;2.67;;;13.30;81.50;;;;;;4985605;28;20037;-65
2024/03/31 08:31:39;;;;;;;5.32;3.20;;;13.50;81.20;;;;;;4987487;28;20041;-66
2024/03/31 08:34:05;;;;;;;5.78;3.75;;;13.50;81.00;;;;;;4989525;28;20497;-65
2024/03/31 08:36:30;;;;;;;8.43;3.65;;;13.50;81.10;;;;;;4968150;28;20057;-65
2024/03/31 08:38:56;;;;;;;4.47;3.35;;;13.50;81.10;;;;;;4989200;28;20057;-65
2024/03/31 08:41:40;;;;;;;4.50;3.40;;;13.50;81.20;;;;;;4972610;28;20030;-65
2024/03/31 08:44:14;;;;;;;6.25;2.70;;;13.50;81.30;;;;;;4983796;28;20105;-65
2024/03/31 08:46:40;;;;;;;5.38;3.22;;;13.50;81.40;;;;;;4971283;28;20396;-65
2024/03/31 08:49:06;;;;;;;4.90;2.80;;;13.50;81.40;;;;;;4986979;28;20030;-65
2024/03/31 08:51:32;;;;;;;7.00;2.92;;;13.60;81.50;;;;;;4961577;28;20057;-65
2024/03/31 08:53:58;;;;;;;5.47;2.72;;;13.60;81.50;;;;;;4985251;28;20048;-68
2024/03/31 08:56:35;;;;;;;7.40;4.38;;;13.80;81.40;;;;;;4972558;28;20117;-68
2024/03/31 08:59:02;;;;;;;4.97;2.90;;;14.00;81.30;;;;;;4984751;28;20031;-70
2024/03/31 09:02:00;;;;;;;5.63;3.25;;;14.10;80.90;;;;;;4988500;28;20396;-69
2024/03/31 09:04:29;;;;;;;5.25;3.38;;;14.30;80.70;;;;;;4932484;28;20041;-63
2024/03/31 09:06:54;;;;;;;6.10;3.35;;;14.50;80.60;;;;;;4968705;28;20038;-63
2024/03/31 09:09:23;;;;;;;4.45;2.60;;;14.60;80.30;;;;;;4967617;28;20061;-62
2024/03/31 09:11:49;;;;;;;4.60;3.47;;;14.80;80.10;;;;;;4983743;28;20044;-63
2024/03/31 09:14:16;;;;;;;5.57;3.25;;;14.90;79.80;;;;;;4986243;28;20045;-63
2024/03/31 09:16:49;;;;;;;6.35;3.63;;;14.80;79.80;;;;;;4982496;28;20026;-63
2024/03/31 09:19:18;;;;;;;5.03;2.95;;;14.80;80.10;;;;;;4981007;28;20232;-63
2024/03/31 09:21:47;;;;;;;6.47;2.90;;;14.70;80.30;;;;;;4981362;28;20507;-63
2024/03/31 09:24:13;;;;;;;5.15;3.17;;;14.80;80.70;;;;;;4980284;28;20369;-62
2024/03/31 09:26:45;;;;;;;8.93;3.25;;;14.90;80.60;;;;;;4983081;28;20041;-63
2024/03/31 09:29:12;;;;;;;5.15;3.00;;;15.10;80.30;;;;;;4984244;28;20038;-65
2024/03/31 09:31:37;;;;;;;4.40;2.45;;;15.30;80.00;;;;;;4983791;28;20440;-68
2024/03/31 09:34:04;;;;;;;4.13;3.22;;;15.50;79.60;;;;;;4981745;28;20035;-68
2024/03/31 09:36:31;;;;;;;4.13;2.70;;;15.70;79.40;;;;;;4986402;28;20443;-68
2024/03/31 09:38:56;;;;;;;7.50;2.88;;;15.70;79.50;;;;;;4979775;28;20091;-69
2024/03/31 09:41:22;;;;;;;5.15;3.00;;;15.70;79.10;;;;;;4977626;28;20043;-68
2024/03/31 09:43:48;;;;;;;6.75;2.92;;;15.80;79.20;;;;;;4982917;28;20026;-69
2024/03/31 09:46:15;;;;;;;4.57;3.30;;;15.80;79.20;;;;;;4984412;28;20105;-69
2024/03/31 09:48:50;;;;;;;5.93;2.92;;;15.90;79.00;;;;;;4982861;28;20085;-68
2024/03/31 09:51:27;;;;;;;8.55;3.60;;;16.10;78.90;;;;;;4984200;28;20077;-66
2024/03/31 09:54:21;;;;;;;4.68;2.92;;;16.20;78.70;;;;;;4963403;28;20046;-68
2024/03/31 09:57:08;;;;;;;4.65;3.35;;;16.50;78.30;;;;;;4981178;28;20513;-67
2024/03/31 09:59:41;;;;;;;7.45;3.80;;;16.70;77.90;;;;;;4975613;28;20034;-67
2024/03/31 10:02:13;;;;;;;3.90;2.60;;;16.80;77.60;;;;;;4979726;28;20027;-68
2024/03/31 10:04:45;;;;;;;4.63;2.67;;;16.90;77.50;;;;;;4985677;28;20101;-68
2024/03/31 10:07:12;;;;;;;10.00;3.67;;;17.10;77.30;;;;;;4976327;28;20477;-67
2024/03/31 10:09:40;;;;;;;5.80;3.40;;;17.20;77.10;;;;;;4982589;28;20036;-67
2024/03/31 10:12:07;;;;;;;5.55;2.97;;;17.30;76.80;;;;;;4981401;28;20038;-68
2024/03/31 10:14:33;;;;;;;5.30;3.05;;;17.40;76.50;;;;;;4985372;28;20030;-67
2024/03/31 10:17:00;;;;;;;4.70;2.85;;;17.40;76.30;;;;;;4980059;28;20022;-67
2024/03/31 10:19:30;;;;;;;5.88;3.10;;;17.40;76.20;;;;;;4986504;28;20034;-67
2024/03/31 10:21:57;;;;;;;5.32;2.97;;;17.50;76.40;;;;;;4982680;28;20380;-67
2024/03/31 10:24:25;;;;;;;4.05;2.80;;;17.50;76.20;;;;;;4982132;28;20027;-68
2024/03/31 10:26:53;;;;;;;4.32;2.78;;;17.70;76.00;;;;;;4968789;28;20049;-67
2024/03/31 10:29:19;;;;;;;4.53;3.03;;;17.70;75.60;;;;;;4985796;28;20034;-67
2024/03/31 10:31:45;;;;;;;4.28;2.92;;;17.60;75.60;;;;;;4987548;28;20504;-67
2024/03/31 10:34:12;;;;;;;7.70;4.25;;;17.50;75.50;;;;;;4984650;28;20026;-68
2024/03/31 10:36:39;;;;;;;6.63;2.92;;;17.60;75.70;;;;;;4984511;28;20031;-67
2024/03/31 10:39:08;;;;;;;6.93;3.80;;;17.80;75.60;;;;;;4979187;28;20031;-68
2024/03/31 10:41:36;;;;;;;5.93;3.05;;;18.00;75.10;;;;;;4986084;28;20030;-67
2024/03/31 10:44:02;;;;;;;6.30;3.17;;;18.30;74.70;;;;;;4991083;28;20386;-66
2024/03/31 10:46:34;;;;;;;3.28;2.60;;;18.50;74.20;;;;;;4973769;28;20062;-67
2024/03/31 10:49:01;;;;;;;5.85;3.05;;;18.60;73.70;;;;;;4992672;28;20117;-67
2024/03/31 10:51:27;;;;;;;3.88;2.40;;;18.70;73.50;;;;;;4963303;28;20517;-66
2024/03/31 10:53:54;;;;;;;2.92;2.22;;;18.70;73.30;;;;;;4984810;28;20446;-63
2024/03/31 10:56:27;;;;;;;3.13;1.70;;;18.80;73.10;;;;;;4976267;28;20040;-64
2024/03/31 10:58:52;;;;;;;3.63;2.08;;;18.80;73.70;;;;;;4987235;28;20835;-64
2024/03/31 11:01:19;;;;;;;6.60;3.30;;;18.90;73.00;;;;;;4991002;28;20031;-64
2024/03/31 11:03:47;;;;;;;3.97;2.22;;;19.00;72.90;;;;;;4990816;28;20401;-63
2024/03/31 11:06:15;;;;;;;4.70;2.20;;;19.30;72.60;;;;;;4974652;28;20093;-63
2024/03/31 11:08:43;;;;;;;4.00;2.40;;;19.60;72.30;;;;;;4965166;28;20066;-63
2024/03/31 11:11:12;;;;;;;2.88;1.60;;;19.90;71.80;;;;;;4990104;28;20029;-64
2024/03/31 11:13:38;;;;;;;4.10;2.08;;;20.20;71.10;;;;;;4989437;28;20088;-63
2024/03/31 11:16:08;;;;;;;7.18;3.05;;;20.30;70.30;;;;;;4991361;28;20038;-66
2024/03/31 11:18:35;;;;;;;7.07;2.25;;;20.30;70.20;;;;;;4990047;28;20088;-67
2024/03/31 11:21:08;;;;;;;3.58;2.15;;;20.10;70.40;;;;;;4989519;28;20022;-66
2024/03/31 11:23:40;;;;;;;5.85;3.03;;;19.80;71.10;;;;;;4990219;28;20484;-66
2024/03/31 11:26:06;;;;;;;2.67;1.63;;;19.70;71.20;;;;;;4990549;28;20034;-66
2024/03/31 11:28:33;;;;;;;5.40;1.55;;;19.60;71.40;;;;;;4990520;28;20366;-66
2024/03/31 11:30:59;;;;;;;2.00;1.85;;;19.60;71.60;;;;;;4990665;28;20023;-66
2024/03/31 11:33:27;;;;;;;3.40;1.67;;;19.80;71.50;;;;;;4990862;28;20473;-67
2024/03/31 11:35:55;;;;;;;5.63;1.60;;;20.00;70.90;;;;;;4990016;28;20039;-66
2024/03/31 11:38:22;;;;;;;5.30;1.55;;;20.30;70.50;;;;;;4989518;28;20069;-66
2024/03/31 11:40:48;;;;;;;3.25;1.70;;;20.50;70.10;;;;;;4971784;28;20740;-67
2024/03/31 11:43:14;;;;;;;4.35;1.65;;;20.80;69.50;;;;;;4972779;28;20022;-66
2024/03/31 11:45:40;;;;;;;2.50;1.60;;;21.00;69.20;;;;;;4990474;28;20038;-67
2024/03/31 11:48:06;;;;;;;4.22;2.17;;;21.10;68.70;;;;;;4972627;28;20362;-66
2024/03/31 11:50:33;;;;;;;2.83;1.90;;;21.30;68.50;;;;;;4989087;28;20038;-67
2024/03/31 11:53:02;;;;;;;1.35;1.13;;;21.60;68.10;;;;;;4990263;28;20026;-67
2024/03/31 11:55:28;;;;;;;3.35;1.50;;;21.80;67.30;;;;;;4995383;28;20038;-66
2024/03/31 11:57:54;;;;;;;2.47;1.63;;;21.60;66.70;;;;;;4990849;28;20481;-67
2024/03/31 12:00:20;;;;;;;2.75;1.35;;;21.30;67.00;;;;;;4973488;28;20030;-67
2024/03/31 12:02:45;;;;;;;1.65;1.40;;;21.10;67.30;;;;;;4989207;28;20042;-67
2024/03/31 12:05:21;;;;;;;2.03;1.20;;;21.00;67.20;;;;;;4990100;28;20034;-67
2024/03/31 12:07:47;;;;;;;7.90;2.13;;;20.80;67.40;;;;;;4986189;28;20085;-68
2024/03/31 12:10:15;;;;;;;3.47;1.00;;;20.90;67.60;;;;;;4992621;28;20019;-68
2024/03/31 12:12:44;;;;;;;1.52;1.20;;;20.90;66.80;;;;;;4992323;28;20027;-68
2024/03/31 12:15:10;;;;;;;2.67;1.48;;;20.80;66.90;;;;;;4990478;28;20034;-67
2024/03/31 12:17:38;;;;;;;2.65;1.65;;;20.60;67.10;;;;;;4987946;28;20043;-68
2024/03/31 12:20:08;;;;;;;3.63;1.02;;;20.50;67.00;;;;;;4986579;28;20026;-67
2024/03/31 12:22:40;;;;;;;1.45;1.02;;;20.30;66.90;;;;;;4992594;28;20029;-67
2024/03/31 12:25:08;;;;;;;2.85;1.20;;;20.20;67.30;;;;;;4992268;28;20022;-70
2024/03/31 12:27:37;;;;;;;4.40;1.38;;;20.10;67.30;;;;;;4974254;28;20038;-64
2024/03/31 12:30:05;;;;;;;2.85;2.13;;;20.00;67.50;;;;;;4991186;28;20484;-64
2024/03/31 12:32:31;;;;;;;2.97;1.50;;;20.00;67.40;;;;;;4984538;28;20035;-64
2024/03/31 12:34:57;;;;;;;5.43;1.52;;;19.90;67.30;;;;;;4990334;28;20036;-64
2024/03/31 12:37:24;;;;;;;2.60;0.95;;;19.80;67.30;;;;;;4984856;28;20043;-64
2024/03/31 12:39:52;;;;;;;1.83;1.08;;;19.80;67.50;;;;;;5003588;28;20532;-64
2024/03/31 12:42:18;;;;;;;1.60;1.25;;;19.70;67.60;;;;;;4987807;28;20058;-64
2024/03/31 12:44:44;;;;;;;4.22;1.38;;;19.70;67.80;;;;;;4972477;28;20065;-64